sensor_id;sensor_type;location;lat;lon;timestamp;P1;durP1;ratioP1;P2;durP2;ratioP2
59938;SDS011;45801;51.810;19.444;2024-03-07T00:00:26;18.80;;;13.20;;
59938;SDS011;45801;51.810;19.444;2024-03-07T00:03:14;24.00;;;14.00;;
59938;SDS011;45801;51.810;19.444;2024-03-07T00:05:40;23.90;;;14.60;;
59938;SDS011;45801;51.810;19.444;2024-03-07T00:08:07;24.30;;;14.20;;
59938;SDS011;45801;51.810;19.444;2024-03-07T00:10:34;21.10;;;13.90;;
59938;SDS011;45801;51.810;19.444;2024-03-07T00:13:02;21.50;;;13.70;;
59938;SDS011;45801;51.810;19.444;2024-03-07T00:15:29;22.70;;;14.50;;
59938;SDS011;45801;51.810;19.444;2024-03-07T00:17:56;23.50;;;14.50;;
59938;SDS011;45801;51.810;19.444;2024-03-07T00:20:22;23.40;;;14.60;;
59938;SDS011;45801;51.810;19.444;2024-03-07T00:22:49;20.90;;;13.70;;
59938;SDS011;45801;51.810;19.444;2024-03-07T00:25:16;24.70;;;15.20;;
59938;SDS011;45801;51.810;19.444;2024-03-07T00:27:46;24.30;;;14.40;;
59938;SDS011;45801;51.810;19.444;2024-03-07T00:30:12;23.70;;;15.30;;
59938;SDS011;45801;51.810;19.444;2024-03-07T00:32:40;25.70;;;15.20;;
59938;SDS011;45801;51.810;19.444;2024-03-07T00:35:06;26.30;;;14.90;;
59938;SDS011;45801;51.810;19.444;2024-03-07T00:37:37;25.20;;;14.60;;
59938;SDS011;45801;51.810;19.444;2024-03-07T00:40:04;25.40;;;16.00;;
59938;SDS011;45801;51.810;19.444;2024-03-07T00:42:31;24.10;;;15.90;;
59938;SDS011;45801;51.810;19.444;2024-03-07T00:44:57;22.90;;;15.00;;
59938;SDS011;45801;51.810;19.444;2024-03-07T00:47:24;26.50;;;14.70;;
59938;SDS011;45801;51.810;19.444;2024-03-07T00:49:50;22.20;;;14.50;;
59938;SDS011;45801;51.810;19.444;2024-03-07T00:52:17;23.40;;;14.80;;
59938;SDS011;45801;51.810;19.444;2024-03-07T00:54:43;24.90;;;15.00;;
59938;SDS011;45801;51.810;19.444;2024-03-07T00:57:10;23.60;;;15.40;;
59938;SDS011;45801;51.810;19.444;2024-03-07T00:59:36;24.20;;;15.90;;
59938;SDS011;45801;51.810;19.444;2024-03-07T01:02:03;22.60;;;14.90;;
59938;SDS011;45801;51.810;19.444;2024-03-07T01:04:30;23.60;;;15.10;;
59938;SDS011;45801;51.810;19.444;2024-03-07T01:06:59;25.30;;;14.90;;
59938;SDS011;45801;51.810;19.444;2024-03-07T01:09:27;24.50;;;15.20;;
59938;SDS011;45801;51.810;19.444;2024-03-07T01:11:55;23.50;;;15.80;;
59938;SDS011;45801;51.810;19.444;2024-03-07T01:14:21;26.00;;;16.20;;
59938;SDS011;45801;51.810;19.444;2024-03-07T01:16:48;17.70;;;11.00;;
59938;SDS011;45801;51.810;19.444;2024-03-07T01:19:15;24.00;;;15.70;;
59938;SDS011;45801;51.810;19.444;2024-03-07T01:21:41;23.00;;;15.10;;
59938;SDS011;45801;51.810;19.444;2024-03-07T01:24:08;23.60;;;14.30;;
59938;SDS011;45801;51.810;19.444;2024-03-07T01:26:35;23.30;;;15.40;;
59938;SDS011;45801;51.810;19.444;2024-03-07T01:29:02;22.60;;;14.50;;
59938;SDS011;45801;51.810;19.444;2024-03-07T01:31:28;24.60;;;15.60;;
59938;SDS011;45801;51.810;19.444;2024-03-07T01:33:55;25.00;;;15.20;;
59938;SDS011;45801;51.810;19.444;2024-03-07T01:36:21;23.10;;;15.00;;
59938;SDS011;45801;51.810;19.444;2024-03-07T01:38:48;23.00;;;15.70;;
59938;SDS011;45801;51.810;19.444;2024-03-07T01:41:15;23.20;;;15.10;;
59938;SDS011;45801;51.810;19.444;2024-03-07T01:43:42;21.80;;;14.60;;
59938;SDS011;45801;51.810;19.444;2024-03-07T01:46:09;25.30;;;16.80;;
59938;SDS011;45801;51.810;19.444;2024-03-07T01:48:36;26.00;;;15.50;;
59938;SDS011;45801;51.810;19.444;2024-03-07T01:51:04;23.60;;;15.60;;
59938;SDS011;45801;51.810;19.444;2024-03-07T01:53:31;25.30;;;15.00;;
59938;SDS011;45801;51.810;19.444;2024-03-07T01:55:59;26.30;;;15.90;;
59938;SDS011;45801;51.810;19.444;2024-03-07T01:58:26;25.60;;;16.40;;
59938;SDS011;45801;51.810;19.444;2024-03-07T02:00:52;22.70;;;15.80;;
59938;SDS011;45801;51.810;19.444;2024-03-07T02:03:19;25.10;;;16.20;;
59938;SDS011;45801;51.810;19.444;2024-03-07T02:05:46;26.00;;;16.10;;
59938;SDS011;45801;51.810;19.444;2024-03-07T02:08:12;25.00;;;15.50;;
59938;SDS011;45801;51.810;19.444;2024-03-07T02:10:41;25.70;;;16.30;;
59938;SDS011;45801;51.810;19.444;2024-03-07T02:13:08;26.30;;;16.10;;
59938;SDS011;45801;51.810;19.444;2024-03-07T02:15:34;21.10;;;13.60;;
59938;SDS011;45801;51.810;19.444;2024-03-07T02:18:01;25.00;;;14.90;;
59938;SDS011;45801;51.810;19.444;2024-03-07T02:20:28;22.80;;;14.80;;
59938;SDS011;45801;51.810;19.444;2024-03-07T02:22:54;22.60;;;15.90;;
59938;SDS011;45801;51.810;19.444;2024-03-07T02:25:21;26.20;;;16.00;;
59938;SDS011;45801;51.810;19.444;2024-03-07T02:27:48;24.60;;;15.90;;
59938;SDS011;45801;51.810;19.444;2024-03-07T02:30:14;25.40;;;16.20;;
59938;SDS011;45801;51.810;19.444;2024-03-07T02:32:41;23.20;;;15.80;;
59938;SDS011;45801;51.810;19.444;2024-03-07T02:35:08;26.90;;;15.80;;
59938;SDS011;45801;51.810;19.444;2024-03-07T02:37:34;24.50;;;15.40;;
59938;SDS011;45801;51.810;19.444;2024-03-07T02:40:01;24.20;;;16.60;;
59938;SDS011;45801;51.810;19.444;2024-03-07T02:42:27;26.60;;;16.10;;
59938;SDS011;45801;51.810;19.444;2024-03-07T02:44:54;25.40;;;15.50;;
59938;SDS011;45801;51.810;19.444;2024-03-07T02:47:20;26.00;;;16.10;;
59938;SDS011;45801;51.810;19.444;2024-03-07T02:49:49;25.30;;;16.10;;
59938;SDS011;45801;51.810;19.444;2024-03-07T02:52:16;23.90;;;16.20;;
59938;SDS011;45801;51.810;19.444;2024-03-07T02:54:43;23.50;;;15.70;;
59938;SDS011;45801;51.810;19.444;2024-03-07T02:57:09;24.90;;;15.70;;
59938;SDS011;45801;51.810;19.444;2024-03-07T02:59:37;26.10;;;16.50;;
59938;SDS011;45801;51.810;19.444;2024-03-07T03:02:04;24.40;;;15.90;;
59938;SDS011;45801;51.810;19.444;2024-03-07T03:04:32;24.30;;;15.80;;
59938;SDS011;45801;51.810;19.444;2024-03-07T03:06:59;23.30;;;15.00;;
59938;SDS011;45801;51.810;19.444;2024-03-07T03:09:25;24.30;;;16.00;;
59938;SDS011;45801;51.810;19.444;2024-03-07T03:11:54;25.10;;;16.20;;
59938;SDS011;45801;51.810;19.444;2024-03-07T03:14:21;24.30;;;15.70;;
59938;SDS011;45801;51.810;19.444;2024-03-07T03:16:47;21.10;;;14.10;;
59938;SDS011;45801;51.810;19.444;2024-03-07T03:19:14;24.20;;;16.20;;
59938;SDS011;45801;51.810;19.444;2024-03-07T03:21:41;25.20;;;15.30;;
59938;SDS011;45801;51.810;19.444;2024-03-07T03:24:09;21.50;;;13.90;;
59938;SDS011;45801;51.810;19.444;2024-03-07T03:26:35;22.70;;;13.60;;
59938;SDS011;45801;51.810;19.444;2024-03-07T03:29:02;21.30;;;13.10;;
59938;SDS011;45801;51.810;19.444;2024-03-07T03:31:28;20.10;;;13.30;;
59938;SDS011;45801;51.810;19.444;2024-03-07T03:33:55;20.00;;;13.30;;
59938;SDS011;45801;51.810;19.444;2024-03-07T03:36:22;22.50;;;13.40;;
59938;SDS011;45801;51.810;19.444;2024-03-07T03:38:48;19.30;;;12.50;;
59938;SDS011;45801;51.810;19.444;2024-03-07T03:41:18;18.40;;;12.00;;
59938;SDS011;45801;51.810;19.444;2024-03-07T03:43:44;21.00;;;13.50;;
59938;SDS011;45801;51.810;19.444;2024-03-07T03:46:11;19.30;;;12.40;;
59938;SDS011;45801;51.810;19.444;2024-03-07T03:48:41;19.60;;;12.60;;
59938;SDS011;45801;51.810;19.444;2024-03-07T03:51:09;19.00;;;12.00;;
59938;SDS011;45801;51.810;19.444;2024-03-07T03:53:39;20.70;;;13.10;;
59938;SDS011;45801;51.810;19.444;2024-03-07T03:56:09;21.30;;;12.90;;
59938;SDS011;45801;51.810;19.444;2024-03-07T03:58:39;19.70;;;12.90;;
59938;SDS011;45801;51.810;19.444;2024-03-07T04:01:06;20.20;;;12.20;;
59938;SDS011;45801;51.810;19.444;2024-03-07T04:03:34;19.90;;;11.80;;
59938;SDS011;45801;51.810;19.444;2024-03-07T04:06:00;20.50;;;12.80;;
59938;SDS011;45801;51.810;19.444;2024-03-07T04:08:27;20.00;;;12.20;;
59938;SDS011;45801;51.810;19.444;2024-03-07T04:10:54;19.30;;;12.20;;
59938;SDS011;45801;51.810;19.444;2024-03-07T04:13:20;20.70;;;13.10;;
59938;SDS011;45801;51.810;19.444;2024-03-07T04:15:48;20.10;;;12.60;;
59938;SDS011;45801;51.810;19.444;2024-03-07T04:18:15;18.40;;;12.10;;
59938;SDS011;45801;51.810;19.444;2024-03-07T04:20:41;17.80;;;11.80;;
59938;SDS011;45801;51.810;19.444;2024-03-07T04:23:10;19.70;;;12.20;;
59938;SDS011;45801;51.810;19.444;2024-03-07T04:25:37;18.70;;;12.70;;
59938;SDS011;45801;51.810;19.444;2024-03-07T04:28:04;18.30;;;12.50;;
59938;SDS011;45801;51.810;19.444;2024-03-07T04:30:32;19.20;;;12.80;;
59938;SDS011;45801;51.810;19.444;2024-03-07T04:32:58;22.80;;;12.10;;
59938;SDS011;45801;51.810;19.444;2024-03-07T04:35:25;16.70;;;11.10;;
59938;SDS011;45801;51.810;19.444;2024-03-07T04:37:51;18.20;;;11.50;;
59938;SDS011;45801;51.810;19.444;2024-03-07T04:40:19;18.90;;;12.60;;
59938;SDS011;45801;51.810;19.444;2024-03-07T04:42:46;18.70;;;11.70;;
59938;SDS011;45801;51.810;19.444;2024-03-07T04:45:15;21.70;;;12.20;;
59938;SDS011;45801;51.810;19.444;2024-03-07T04:47:43;17.80;;;12.10;;
59938;SDS011;45801;51.810;19.444;2024-03-07T04:50:13;20.30;;;12.40;;
59938;SDS011;45801;51.810;19.444;2024-03-07T04:52:43;17.80;;;11.20;;
59938;SDS011;45801;51.810;19.444;2024-03-07T04:55:10;17.70;;;11.60;;
59938;SDS011;45801;51.810;19.444;2024-03-07T04:57:37;19.00;;;12.20;;
59938;SDS011;45801;51.810;19.444;2024-03-07T05:00:06;18.80;;;12.20;;
59938;SDS011;45801;51.810;19.444;2024-03-07T05:02:34;18.80;;;11.70;;
59938;SDS011;45801;51.810;19.444;2024-03-07T05:05:00;19.60;;;11.90;;
59938;SDS011;45801;51.810;19.444;2024-03-07T05:07:27;18.50;;;11.30;;
59938;SDS011;45801;51.810;19.444;2024-03-07T05:09:53;16.70;;;11.20;;
59938;SDS011;45801;51.810;19.444;2024-03-07T05:12:20;17.20;;;11.30;;
59938;SDS011;45801;51.810;19.444;2024-03-07T05:14:46;19.00;;;12.20;;
59938;SDS011;45801;51.810;19.444;2024-03-07T05:17:13;19.50;;;11.60;;
59938;SDS011;45801;51.810;19.444;2024-03-07T05:19:39;17.20;;;10.50;;
59938;SDS011;45801;51.810;19.444;2024-03-07T05:22:06;16.40;;;10.80;;
59938;SDS011;45801;51.810;19.444;2024-03-07T05:24:33;17.70;;;10.40;;
59938;SDS011;45801;51.810;19.444;2024-03-07T05:27:03;18.20;;;11.30;;
59938;SDS011;45801;51.810;19.444;2024-03-07T05:29:29;17.20;;;11.10;;
59938;SDS011;45801;51.810;19.444;2024-03-07T05:32:17;19.60;;;11.30;;
59938;SDS011;45801;51.810;19.444;2024-03-07T05:34:49;18.70;;;10.80;;
59938;SDS011;45801;51.810;19.444;2024-03-07T05:37:16;19.00;;;10.40;;
59938;SDS011;45801;51.810;19.444;2024-03-07T05:39:43;18.30;;;11.20;;
59938;SDS011;45801;51.810;19.444;2024-03-07T05:42:09;17.90;;;10.90;;
59938;SDS011;45801;51.810;19.444;2024-03-07T05:44:43;16.80;;;10.40;;
59938;SDS011;45801;51.810;19.444;2024-03-07T05:47:10;17.00;;;11.10;;
59938;SDS011;45801;51.810;19.444;2024-03-07T05:49:39;18.30;;;11.30;;
59938;SDS011;45801;51.810;19.444;2024-03-07T05:52:06;17.30;;;11.00;;
59938;SDS011;45801;51.810;19.444;2024-03-07T05:54:33;19.80;;;11.30;;
59938;SDS011;45801;51.810;19.444;2024-03-07T05:57:01;19.00;;;11.30;;
59938;SDS011;45801;51.810;19.444;2024-03-07T05:59:28;18.10;;;11.50;;
59938;SDS011;45801;51.810;19.444;2024-03-07T06:01:55;19.80;;;12.30;;
59938;SDS011;45801;51.810;19.444;2024-03-07T06:04:22;17.70;;;10.10;;
59938;SDS011;45801;51.810;19.444;2024-03-07T06:06:48;20.60;;;10.70;;
59938;SDS011;45801;51.810;19.444;2024-03-07T06:09:15;16.70;;;10.30;;
59938;SDS011;45801;51.810;19.444;2024-03-07T06:11:47;19.70;;;11.50;;
59938;SDS011;45801;51.810;19.444;2024-03-07T06:14:15;17.20;;;11.50;;
59938;SDS011;45801;51.810;19.444;2024-03-07T06:16:42;17.80;;;11.40;;
59938;SDS011;45801;51.810;19.444;2024-03-07T06:19:09;19.60;;;11.90;;
59938;SDS011;45801;51.810;19.444;2024-03-07T06:21:36;20.00;;;11.70;;
59938;SDS011;45801;51.810;19.444;2024-03-07T06:24:05;18.30;;;10.70;;
59938;SDS011;45801;51.810;19.444;2024-03-07T06:26:34;17.70;;;11.30;;
59938;SDS011;45801;51.810;19.444;2024-03-07T06:29:11;18.40;;;11.60;;
59938;SDS011;45801;51.810;19.444;2024-03-07T06:31:39;17.90;;;11.00;;
59938;SDS011;45801;51.810;19.444;2024-03-07T06:34:09;19.10;;;10.80;;
59938;SDS011;45801;51.810;19.444;2024-03-07T06:36:35;18.50;;;11.50;;
59938;SDS011;45801;51.810;19.444;2024-03-07T06:39:02;18.60;;;11.50;;
59938;SDS011;45801;51.810;19.444;2024-03-07T06:41:32;18.80;;;10.90;;
59938;SDS011;45801;51.810;19.444;2024-03-07T06:43:59;17.00;;;11.00;;
59938;SDS011;45801;51.810;19.444;2024-03-07T06:46:26;16.70;;;11.00;;
59938;SDS011;45801;51.810;19.444;2024-03-07T06:48:53;17.80;;;11.30;;
59938;SDS011;45801;51.810;19.444;2024-03-07T06:51:22;21.00;;;11.50;;
59938;SDS011;45801;51.810;19.444;2024-03-07T06:53:49;17.70;;;10.80;;
59938;SDS011;45801;51.810;19.444;2024-03-07T06:56:16;18.60;;;11.80;;
59938;SDS011;45801;51.810;19.444;2024-03-07T06:58:43;17.90;;;10.10;;
59938;SDS011;45801;51.810;19.444;2024-03-07T07:01:14;24.00;;;11.00;;
59938;SDS011;45801;51.810;19.444;2024-03-07T07:03:42;19.00;;;11.70;;
59938;SDS011;45801;51.810;19.444;2024-03-07T07:06:12;18.80;;;10.60;;
59938;SDS011;45801;51.810;19.444;2024-03-07T07:08:39;16.00;;;10.40;;
59938;SDS011;45801;51.810;19.444;2024-03-07T07:11:05;17.70;;;12.00;;
59938;SDS011;45801;51.810;19.444;2024-03-07T07:13:32;21.30;;;11.20;;
59938;SDS011;45801;51.810;19.444;2024-03-07T07:15:59;20.60;;;11.70;;
59938;SDS011;45801;51.810;19.444;2024-03-07T07:18:27;23.50;;;12.40;;
59938;SDS011;45801;51.810;19.444;2024-03-07T07:20:53;21.60;;;11.80;;
59938;SDS011;45801;51.810;19.444;2024-03-07T07:23:20;20.30;;;12.60;;
59938;SDS011;45801;51.810;19.444;2024-03-07T07:25:46;19.30;;;12.60;;
59938;SDS011;45801;51.810;19.444;2024-03-07T07:28:13;19.20;;;11.20;;
59938;SDS011;45801;51.810;19.444;2024-03-07T07:30:41;18.90;;;11.20;;
59938;SDS011;45801;51.810;19.444;2024-03-07T07:33:08;21.00;;;12.70;;
59938;SDS011;45801;51.810;19.444;2024-03-07T07:35:35;19.10;;;11.80;;
59938;SDS011;45801;51.810;19.444;2024-03-07T07:38:01;16.60;;;11.00;;
59938;SDS011;45801;51.810;19.444;2024-03-07T07:40:28;18.40;;;12.30;;
59938;SDS011;45801;51.810;19.444;2024-03-07T07:42:57;18.00;;;11.20;;
59938;SDS011;45801;51.810;19.444;2024-03-07T07:45:24;17.80;;;10.70;;
59938;SDS011;45801;51.810;19.444;2024-03-07T07:47:51;20.50;;;12.10;;
59938;SDS011;45801;51.810;19.444;2024-03-07T07:50:20;19.30;;;12.90;;
59938;SDS011;45801;51.810;19.444;2024-03-07T07:52:49;22.40;;;12.10;;
59938;SDS011;45801;51.810;19.444;2024-03-07T07:55:19;23.40;;;11.80;;
59938;SDS011;45801;51.810;19.444;2024-03-07T07:57:47;19.40;;;11.40;;
59938;SDS011;45801;51.810;19.444;2024-03-07T08:00:19;18.80;;;12.10;;
59938;SDS011;45801;51.810;19.444;2024-03-07T08:02:53;21.50;;;12.60;;
59938;SDS011;45801;51.810;19.444;2024-03-07T08:05:30;17.80;;;11.80;;
59938;SDS011;45801;51.810;19.444;2024-03-07T08:08:02;17.90;;;12.20;;
59938;SDS011;45801;51.810;19.444;2024-03-07T08:10:35;19.60;;;11.70;;
59938;SDS011;45801;51.810;19.444;2024-03-07T08:13:03;17.80;;;11.60;;
59938;SDS011;45801;51.810;19.444;2024-03-07T08:15:34;19.00;;;12.10;;
59938;SDS011;45801;51.810;19.444;2024-03-07T08:18:01;18.60;;;12.00;;
59938;SDS011;45801;51.810;19.444;2024-03-07T08:20:28;21.30;;;13.90;;
59938;SDS011;45801;51.810;19.444;2024-03-07T08:22:56;19.60;;;12.40;;
59938;SDS011;45801;51.810;19.444;2024-03-07T08:25:26;18.20;;;11.50;;
59938;SDS011;45801;51.810;19.444;2024-03-07T08:27:54;20.90;;;11.40;;
59938;SDS011;45801;51.810;19.444;2024-03-07T08:30:22;18.30;;;11.80;;
59938;SDS011;45801;51.810;19.444;2024-03-07T08:32:52;20.50;;;11.30;;
59938;SDS011;45801;51.810;19.444;2024-03-07T08:35:20;18.40;;;10.90;;
59938;SDS011;45801;51.810;19.444;2024-03-07T08:37:50;19.80;;;12.10;;
59938;SDS011;45801;51.810;19.444;2024-03-07T08:40:22;18.70;;;11.90;;
59938;SDS011;45801;51.810;19.444;2024-03-07T08:42:51;20.30;;;11.30;;
59938;SDS011;45801;51.810;19.444;2024-03-07T08:45:20;18.90;;;11.60;;
59938;SDS011;45801;51.810;19.444;2024-03-07T08:47:47;18.90;;;11.50;;
59938;SDS011;45801;51.810;19.444;2024-03-07T08:50:16;19.10;;;11.50;;
59938;SDS011;45801;51.810;19.444;2024-03-07T08:52:44;18.30;;;11.70;;
59938;SDS011;45801;51.810;19.444;2024-03-07T08:55:12;23.10;;;11.80;;
59938;SDS011;45801;51.810;19.444;2024-03-07T08:57:43;19.10;;;11.80;;
59938;SDS011;45801;51.810;19.444;2024-03-07T09:00:13;19.80;;;11.50;;
59938;SDS011;45801;51.810;19.444;2024-03-07T09:02:50;15.80;;;9.70;;
59938;SDS011;45801;51.810;19.444;2024-03-07T09:05:21;16.60;;;10.60;;
59938;SDS011;45801;51.810;19.444;2024-03-07T09:07:49;16.60;;;10.80;;
59938;SDS011;45801;51.810;19.444;2024-03-07T09:10:17;18.50;;;9.70;;
59938;SDS011;45801;51.810;19.444;2024-03-07T09:12:44;17.90;;;11.00;;
59938;SDS011;45801;51.810;19.444;2024-03-07T09:15:12;16.50;;;10.30;;
59938;SDS011;45801;51.810;19.444;2024-03-07T09:17:39;18.30;;;10.70;;
59938;SDS011;45801;51.810;19.444;2024-03-07T09:20:07;18.20;;;11.50;;
59938;SDS011;45801;51.810;19.444;2024-03-07T09:22:36;17.10;;;11.30;;
59938;SDS011;45801;51.810;19.444;2024-03-07T09:25:03;19.40;;;11.70;;
59938;SDS011;45801;51.810;19.444;2024-03-07T09:27:31;18.70;;;12.00;;
59938;SDS011;45801;51.810;19.444;2024-03-07T09:29:58;18.30;;;12.00;;
59938;SDS011;45801;51.810;19.444;2024-03-07T09:32:25;18.50;;;11.30;;
59938;SDS011;45801;51.810;19.444;2024-03-07T09:34:51;18.60;;;12.30;;
59938;SDS011;45801;51.810;19.444;2024-03-07T09:37:18;21.70;;;13.60;;
59938;SDS011;45801;51.810;19.444;2024-03-07T09:39:47;22.80;;;14.30;;
59938;SDS011;45801;51.810;19.444;2024-03-07T09:42:16;23.90;;;14.10;;
59938;SDS011;45801;51.810;19.444;2024-03-07T09:44:43;24.10;;;14.50;;
59938;SDS011;45801;51.810;19.444;2024-03-07T09:47:13;24.50;;;15.40;;
59938;SDS011;45801;51.810;19.444;2024-03-07T09:49:40;21.80;;;13.80;;
59938;SDS011;45801;51.810;19.444;2024-03-07T09:52:07;22.30;;;14.20;;
59938;SDS011;45801;51.810;19.444;2024-03-07T09:54:40;21.10;;;13.80;;
59938;SDS011;45801;51.810;19.444;2024-03-07T09:57:07;21.10;;;13.50;;
59938;SDS011;45801;51.810;19.444;2024-03-07T09:59:36;20.40;;;14.10;;
59938;SDS011;45801;51.810;19.444;2024-03-07T10:02:08;22.70;;;13.40;;
59938;SDS011;45801;51.810;19.444;2024-03-07T10:04:43;19.70;;;13.00;;
59938;SDS011;45801;51.810;19.444;2024-03-07T10:07:14;20.40;;;12.30;;
59938;SDS011;45801;51.810;19.444;2024-03-07T10:09:42;18.60;;;12.70;;
59938;SDS011;45801;51.810;19.444;2024-03-07T10:12:09;21.20;;;13.10;;
59938;SDS011;45801;51.810;19.444;2024-03-07T10:14:38;19.90;;;12.90;;
59938;SDS011;45801;51.810;19.444;2024-03-07T10:17:05;18.30;;;12.10;;
59938;SDS011;45801;51.810;19.444;2024-03-07T10:19:31;18.90;;;12.50;;
59938;SDS011;45801;51.810;19.444;2024-03-07T10:21:59;19.10;;;12.00;;
59938;SDS011;45801;51.810;19.444;2024-03-07T10:24:28;21.40;;;12.90;;
59938;SDS011;45801;51.810;19.444;2024-03-07T10:26:54;21.20;;;13.60;;
59938;SDS011;45801;51.810;19.444;2024-03-07T10:29:24;20.80;;;12.30;;
59938;SDS011;45801;51.810;19.444;2024-03-07T10:31:51;19.80;;;14.00;;
59938;SDS011;45801;51.810;19.444;2024-03-07T10:34:18;20.40;;;14.10;;
59938;SDS011;45801;51.810;19.444;2024-03-07T10:36:45;24.30;;;16.10;;
59938;SDS011;45801;51.810;19.444;2024-03-07T10:39:12;21.00;;;14.10;;
59938;SDS011;45801;51.810;19.444;2024-03-07T10:41:44;21.70;;;13.40;;
59938;SDS011;45801;51.810;19.444;2024-03-07T10:44:18;19.80;;;13.30;;
59938;SDS011;45801;51.810;19.444;2024-03-07T10:46:52;19.50;;;13.40;;
59938;SDS011;45801;51.810;19.444;2024-03-07T10:49:20;21.20;;;13.10;;
59938;SDS011;45801;51.810;19.444;2024-03-07T10:52:34;19.90;;;11.80;;
59938;SDS011;45801;51.810;19.444;2024-03-07T10:57:49;19.00;;;12.40;;
59938;SDS011;45801;51.810;19.444;2024-03-07T11:00:21;22.10;;;14.20;;
59938;SDS011;45801;51.810;19.444;2024-03-07T11:03:02;19.10;;;13.10;;
59938;SDS011;45801;51.810;19.444;2024-03-07T11:05:33;21.20;;;12.70;;
59938;SDS011;45801;51.810;19.444;2024-03-07T11:08:00;21.80;;;13.10;;
59938;SDS011;45801;51.810;19.444;2024-03-07T11:10:31;19.20;;;13.90;;
59938;SDS011;45801;51.810;19.444;2024-03-07T11:12:58;21.40;;;13.80;;
59938;SDS011;45801;51.810;19.444;2024-03-07T11:15:26;20.00;;;13.60;;
59938;SDS011;45801;51.810;19.444;2024-03-07T11:17:54;21.30;;;14.40;;
59938;SDS011;45801;51.810;19.444;2024-03-07T11:20:22;19.10;;;13.40;;
59938;SDS011;45801;51.810;19.444;2024-03-07T11:22:49;19.10;;;12.40;;
59938;SDS011;45801;51.810;19.444;2024-03-07T11:25:18;19.50;;;13.00;;
59938;SDS011;45801;51.810;19.444;2024-03-07T11:27:55;20.60;;;14.80;;
59938;SDS011;45801;51.810;19.444;2024-03-07T11:30:24;19.60;;;13.90;;
59938;SDS011;45801;51.810;19.444;2024-03-07T11:32:51;18.70;;;12.80;;
59938;SDS011;45801;51.810;19.444;2024-03-07T11:35:20;20.90;;;13.20;;
59938;SDS011;45801;51.810;19.444;2024-03-07T11:37:59;18.10;;;12.60;;
59938;SDS011;45801;51.810;19.444;2024-03-07T11:42:53;18.80;;;13.50;;
59938;SDS011;45801;51.810;19.444;2024-03-07T11:45:23;21.60;;;14.20;;
59938;SDS011;45801;51.810;19.444;2024-03-07T11:47:53;20.00;;;13.70;;
59938;SDS011;45801;51.810;19.444;2024-03-07T11:50:27;20.90;;;14.00;;
59938;SDS011;45801;51.810;19.444;2024-03-07T11:52:54;19.30;;;12.50;;
59938;SDS011;45801;51.810;19.444;2024-03-07T11:55:22;20.60;;;14.10;;
59938;SDS011;45801;51.810;19.444;2024-03-07T11:57:49;21.90;;;14.60;;
59938;SDS011;45801;51.810;19.444;2024-03-07T12:00:19;18.90;;;13.90;;
59938;SDS011;45801;51.810;19.444;2024-03-07T12:02:50;20.30;;;13.80;;
59938;SDS011;45801;51.810;19.444;2024-03-07T12:05:16;19.90;;;13.50;;
59938;SDS011;45801;51.810;19.444;2024-03-07T12:07:43;20.30;;;14.30;;
59938;SDS011;45801;51.810;19.444;2024-03-07T12:10:10;19.90;;;13.70;;
59938;SDS011;45801;51.810;19.444;2024-03-07T12:12:37;19.90;;;13.50;;
59938;SDS011;45801;51.810;19.444;2024-03-07T12:15:06;19.10;;;13.30;;
59938;SDS011;45801;51.810;19.444;2024-03-07T12:17:42;22.80;;;13.90;;
59938;SDS011;45801;51.810;19.444;2024-03-07T12:20:09;18.50;;;11.70;;
59938;SDS011;45801;51.810;19.444;2024-03-07T12:22:57;19.50;;;10.70;;
59938;SDS011;45801;51.810;19.444;2024-03-07T12:25:28;16.70;;;9.50;;
59938;SDS011;45801;51.810;19.444;2024-03-07T12:33:13;15.50;;;9.70;;
59938;SDS011;45801;51.810;19.444;2024-03-07T12:35:49;17.90;;;10.60;;
59938;SDS011;45801;51.810;19.444;2024-03-07T12:38:19;16.30;;;10.40;;
59938;SDS011;45801;51.810;19.444;2024-03-07T12:40:46;15.40;;;9.80;;
59938;SDS011;45801;51.810;19.444;2024-03-07T12:45:51;15.90;;;10.40;;
59938;SDS011;45801;51.810;19.444;2024-03-07T12:48:18;19.10;;;10.70;;
59938;SDS011;45801;51.810;19.444;2024-03-07T12:50:47;17.20;;;11.30;;
59938;SDS011;45801;51.810;19.444;2024-03-07T12:53:22;18.80;;;12.90;;
59938;SDS011;45801;51.810;19.444;2024-03-07T12:55:51;19.60;;;12.00;;
59938;SDS011;45801;51.810;19.444;2024-03-07T12:58:18;16.70;;;11.30;;
59938;SDS011;45801;51.810;19.444;2024-03-07T13:00:52;20.40;;;12.80;;
59938;SDS011;45801;51.810;19.444;2024-03-07T13:03:22;18.50;;;12.60;;
59938;SDS011;45801;51.810;19.444;2024-03-07T13:05:49;20.90;;;13.60;;
59938;SDS011;45801;51.810;19.444;2024-03-07T13:08:16;20.90;;;13.40;;
59938;SDS011;45801;51.810;19.444;2024-03-07T13:10:42;18.40;;;13.40;;
59938;SDS011;45801;51.810;19.444;2024-03-07T13:13:09;17.60;;;12.50;;
59938;SDS011;45801;51.810;19.444;2024-03-07T13:15:40;19.70;;;14.40;;
59938;SDS011;45801;51.810;19.444;2024-03-07T13:18:08;18.20;;;13.00;;
59938;SDS011;45801;51.810;19.444;2024-03-07T13:20:35;18.80;;;12.30;;
59938;SDS011;45801;51.810;19.444;2024-03-07T13:23:02;18.30;;;11.70;;
59938;SDS011;45801;51.810;19.444;2024-03-07T13:25:29;22.50;;;13.00;;
59938;SDS011;45801;51.810;19.444;2024-03-07T13:28:09;16.60;;;10.30;;
59938;SDS011;45801;51.810;19.444;2024-03-07T13:30:52;18.80;;;10.90;;
59938;SDS011;45801;51.810;19.444;2024-03-07T13:33:21;19.30;;;11.00;;
59938;SDS011;45801;51.810;19.444;2024-03-07T13:35:50;15.60;;;9.70;;
59938;SDS011;45801;51.810;19.444;2024-03-07T13:38:18;17.70;;;10.60;;
59938;SDS011;45801;51.810;19.444;2024-03-07T13:40:45;18.60;;;10.20;;
59938;SDS011;45801;51.810;19.444;2024-03-07T13:43:11;16.30;;;9.90;;
59938;SDS011;45801;51.810;19.444;2024-03-07T13:45:38;15.80;;;10.20;;
59938;SDS011;45801;51.810;19.444;2024-03-07T13:48:10;14.90;;;10.00;;
59938;SDS011;45801;51.810;19.444;2024-03-07T13:50:39;14.80;;;9.30;;
59938;SDS011;45801;51.810;19.444;2024-03-07T13:53:10;18.10;;;10.60;;
59938;SDS011;45801;51.810;19.444;2024-03-07T14:01:22;15.10;;;9.10;;
59938;SDS011;45801;51.810;19.444;2024-03-07T14:07:05;17.10;;;9.60;;
59938;SDS011;45801;51.810;19.444;2024-03-07T14:18:59;15.40;;;9.10;;
59938;SDS011;45801;51.810;19.444;2024-03-07T14:30:17;21.40;;;11.00;;
59938;SDS011;45801;51.810;19.444;2024-03-07T14:33:06;15.30;;;9.50;;
59938;SDS011;45801;51.810;19.444;2024-03-07T14:38:28;16.20;;;8.80;;
59938;SDS011;45801;51.810;19.444;2024-03-07T14:41:08;17.40;;;9.90;;
59938;SDS011;45801;51.810;19.444;2024-03-07T14:43:38;14.10;;;8.80;;
59938;SDS011;45801;51.810;19.444;2024-03-07T14:46:08;18.70;;;10.70;;
59938;SDS011;45801;51.810;19.444;2024-03-07T14:48:36;17.30;;;10.20;;
59938;SDS011;45801;51.810;19.444;2024-03-07T14:51:02;14.40;;;9.40;;
59938;SDS011;45801;51.810;19.444;2024-03-07T14:53:31;17.40;;;10.60;;
59938;SDS011;45801;51.810;19.444;2024-03-07T14:56:00;15.80;;;9.00;;
59938;SDS011;45801;51.810;19.444;2024-03-07T14:58:26;13.10;;;8.00;;